Time;durP1;ratioP1;P1;durP2;ratioP2;P2;SDS_P1;SDS_P2;PMS_P1;PMS_P2;Temp;Humidity;BMP_temperature;BMP_pressure;BME280_temperature;BME280_humidity;BME280_pressure;Samples;Min_cycle;Max_cycle;Signal;HPM_P1;HPM_P2
2023/07/29 07:04:34;;;;;;;4.50;4.10;;;;;;;19.39;86.03;96718.06;105353;1265;94411;-81
2023/07/29 07:07:01;;;;;;;5.00;4.20;;;;;;;19.53;85.82;96720.16;106965;1248;99927;-79
2023/07/29 07:09:27;;;;;;;5.70;4.40;;;;;;;19.64;85.42;96718.35;106773;1250;95824;-79
2023/07/29 07:11:53;;;;;;;4.90;4.20;;;;;;;19.73;85.13;96707.59;106813;1257;95810;-79
2023/07/29 07:14:19;;;;;;;4.60;4.10;;;;;;;19.87;84.81;96705.63;106811;1251;95870;-79
2023/07/29 07:16:46;;;;;;;4.60;4.00;;;;;;;19.98;84.47;96700.09;106823;1246;101571;-79
2023/07/29 07:19:12;;;;;;;4.50;3.80;;;;;;;20.09;84.39;96700.37;106798;1258;95983;-79
2023/07/29 07:21:38;;;;;;;4.20;3.70;;;;;;;20.20;84.34;96699.88;106825;1245;96065;-80
2023/07/29 07:24:05;;;;;;;4.00;3.60;;;;;;;20.34;83.77;96697.92;106855;1249;96081;-79
2023/07/29 07:26:31;;;;;;;5.90;3.60;;;;;;;20.46;83.44;96697.00;106744;1247;101480;-79
2023/07/29 07:28:57;;;;;;;4.10;3.60;;;;;;;20.61;83.24;96701.98;106838;1260;96010;-79
2023/07/29 07:31:23;;;;;;;4.60;3.70;;;;;;;20.77;83.50;96693.77;106856;1257;96773;-79
2023/07/29 07:33:50;;;;;;;3.60;3.30;;;;;;;20.97;83.03;96694.49;106863;1249;95889;-79
2023/07/29 07:36:16;;;;;;;5.60;3.20;;;;;;;21.16;82.91;96698.48;106893;1246;109238;-79
2023/07/29 07:38:42;;;;;;;3.60;3.10;;;;;;;21.35;82.55;96695.92;106894;1249;95832;-79
2023/07/29 07:41:08;;;;;;;5.10;3.30;;;;;;;21.51;81.63;96696.98;106824;1244;95814;-79
2023/07/29 07:43:35;;;;;;;3.50;2.90;;;;;;;21.67;81.05;96698.61;107425;1244;96000;-79
2023/07/29 07:46:02;;;;;;;4.70;3.00;;;;;;;21.91;80.70;96697.98;107399;1242;101677;-80
2023/07/29 07:48:28;;;;;;;4.20;3.00;;;;;;;22.27;79.93;96694.63;107418;1240;95954;-79
2023/07/29 07:50:55;;;;;;;4.70;3.00;;;;;;;22.68;79.41;96694.27;107439;1249;96858;-79
2023/07/29 07:53:21;;;;;;;3.20;2.90;;;;;;;23.12;78.41;96699.14;107457;1242;95933;-79
2023/07/29 07:55:47;;;;;;;3.80;2.80;;;;;;;23.49;77.47;96693.87;107392;1241;99803;-80
2023/07/29 07:58:13;;;;;;;6.00;2.50;;;;;;;23.89;76.94;96693.40;107450;1251;95817;-80
2023/07/29 08:00:40;;;;;;;3.90;2.50;;;;;;;24.37;75.70;96690.09;107360;1242;95794;-80
2023/07/29 08:03:06;;;;;;;4.40;2.60;;;;;;;24.66;74.23;96690.27;107589;1241;95869;-80
2023/07/29 08:05:33;;;;;;;4.30;3.00;;;;;;;24.75;72.89;96687.90;107647;1238;100760;-80
2023/07/29 08:07:59;;;;;;;3.20;2.80;;;;;;;24.75;72.37;96683.96;107549;1242;96115;-80
2023/07/29 08:10:25;;;;;;;3.20;2.90;;;;;;;24.70;71.95;96681.34;107554;1242;95939;-80
2023/07/29 08:12:52;;;;;;;3.30;3.00;;;;;;;24.69;71.72;96684.39;107430;1237;96093;-80
2023/07/29 08:15:18;;;;;;;4.60;2.90;;;;;;;24.65;70.63;96681.96;107420;1241;101730;-80
2023/07/29 08:17:46;;;;;;;4.80;3.30;;;;;;;24.59;70.00;96683.19;107533;1252;95815;-80
2023/07/29 08:20:13;;;;;;;5.00;3.60;;;;;;;24.52;70.24;96679.41;107527;1242;96248;-80
2023/07/29 08:22:39;;;;;;;5.00;4.40;;;;;;;24.45;70.11;96681.04;107760;1242;95793;-80
2023/07/29 08:25:06;;;;;;;4.70;3.90;;;;;;;24.38;69.87;96683.52;107649;1242;96603;-79
2023/07/29 08:27:34;;;;;;;3.50;3.20;;;;;;;24.30;69.72;96681.29;107500;1249;95889;-79
2023/07/29 08:30:00;;;;;;;5.60;3.30;;;;;;;24.20;69.64;96677.61;107401;1241;100574;-79
2023/07/29 08:32:26;;;;;;;3.80;3.30;;;;;;;24.08;69.48;96682.98;107402;1249;95924;-80
2023/07/29 08:34:53;;;;;;;3.60;3.30;;;;;;;23.96;68.98;96677.30;107377;1237;95783;-79
2023/07/29 08:37:19;;;;;;;3.10;2.40;;;;;;;23.89;68.95;96682.04;107434;1241;97062;-80
2023/07/29 08:39:45;;;;;;;3.30;3.00;;;;;;;23.82;68.86;96678.57;107411;1242;100590;-79
2023/07/29 08:42:12;;;;;;;3.70;2.60;;;;;;;23.78;69.19;96682.86;107425;1243;95879;-79
2023/07/29 08:44:43;;;;;;;8.00;5.40;;;;;;;23.75;69.15;96681.52;107565;1243;96648;-79
2023/07/29 08:47:09;;;;;;;14.40;6.20;;;;;;;23.69;69.05;96679.93;107395;1241;101376;-79
2023/07/29 08:49:38;;;;;;;8.70;6.60;;;;;;;23.64;69.25;96679.20;107253;1246;96048;-79
2023/07/29 15:22:07;;;;;;;6.10;3.40;;;;;;;19.79;86.13;96686.48;101949;1298;641478;-80
2023/07/29 15:24:34;;;;;;;3.50;3.20;;;;;;;20.23;85.85;96677.82;104308;1267;96178;-80
2023/07/29 15:27:00;;;;;;;5.10;3.80;;;;;;;20.30;85.82;96671.38;104753;1263;95930;-81
2023/07/29 15:29:26;;;;;;;4.20;3.40;;;;;;;20.37;86.12;96662.34;104855;1258;95842;-81
2023/07/29 15:31:53;;;;;;;5.00;3.40;;;;;;;20.39;85.63;96657.33;104964;1262;100771;-81
2023/07/29 15:34:19;;;;;;;4.60;4.10;;;;;;;20.38;85.72;96647.02;105094;1257;96820;-80
2023/07/29 15:36:45;;;;;;;7.30;4.80;;;;;;;20.41;85.77;96641.11;104615;1273;95862;-82
2023/07/29 15:39:12;;;;;;;6.10;4.60;;;;;;;20.38;85.27;96640.11;104738;1262;95877;-80
2023/07/29 15:41:38;;;;;;;5.40;3.40;;;;;;;20.31;85.10;96641.59;104722;1263;100588;-80
2023/07/29 15:44:04;;;;;;;5.60;3.70;;;;;;;20.32;85.32;96643.83;104777;1262;96373;-80
2023/07/29 15:46:31;;;;;;;4.50;4.00;;;;;;;20.35;85.52;96642.52;104583;1262;96117;-81
2023/07/29 15:48:59;;;;;;;6.10;4.10;;;;;;;20.41;85.50;96643.48;105015;1257;95918;-80
2023/07/29 15:51:26;;;;;;;7.70;5.00;;;;;;;20.48;85.51;96639.35;104979;1260;100772;-80
2023/07/29 15:53:53;;;;;;;6.40;4.70;;;;;;;20.53;85.29;96634.63;105050;1258;96152;-81
2023/07/29 15:56:19;;;;;;;6.30;4.40;;;;;;;20.56;85.43;96631.95;105171;1260;96363;-81
2023/07/29 15:58:46;;;;;;;4.40;3.40;;;;;;;20.60;85.13;96626.91;104702;1262;96258;-80
2023/07/29 16:01:12;;;;;;;4.60;3.20;;;;;;;20.61;84.91;96622.85;104599;1275;95855;-80
2023/07/29 16:03:40;;;;;;;2.70;2.50;;;;;;;20.68;84.68;96627.79;104809;1260;96411;-81
2023/07/29 16:06:07;;;;;;;4.00;3.40;;;;;;;20.75;84.45;96628.63;104872;1257;96784;-80
2023/07/29 16:08:33;;;;;;;5.60;3.50;;;;;;;20.85;84.58;96623.84;104827;1273;95931;-81
2023/07/29 16:11:00;;;;;;;3.40;2.90;;;;;;;20.95;84.27;96619.09;105021;1261;96142;-80
2023/07/29 16:13:26;;;;;;;5.40;3.40;;;;;;;21.08;84.37;96618.84;105044;1280;96305;-80
2023/07/29 16:15:53;;;;;;;3.50;3.20;;;;;;;21.12;83.84;96619.12;104966;1280;95858;-81
2023/07/29 16:18:19;;;;;;;5.70;3.00;;;;;;;21.15;83.32;96623.45;105026;1258;95825;-80
2023/07/29 16:20:46;;;;;;;3.30;3.00;;;;;;;21.07;82.26;96623.83;104843;1260;96005;-80
2023/07/29 16:23:12;;;;;;;4.10;3.40;;;;;;;20.97;82.23;96622.13;105031;1257;96778;-80
2023/07/29 16:25:39;;;;;;;4.80;3.20;;;;;;;20.94;82.72;96622.16;105112;1263;95796;-81
2023/07/29 16:28:05;;;;;;;4.30;3.10;;;;;;;20.92;82.93;96621.54;105129;1270;95848;-80
2023/07/29 16:30:31;;;;;;;3.30;2.80;;;;;;;20.89;83.22;96617.89;105030;1257;97191;-80
2023/07/29 16:32:57;;;;;;;4.60;3.00;;;;;;;20.89;83.57;96618.18;104825;1263;96795;-80
2023/07/29 16:35:24;;;;;;;7.00;3.00;;;;;;;20.89;83.96;96613.79;104761;1257;95832;-80
2023/07/29 16:37:51;;;;;;;4.20;3.00;;;;;;;20.83;83.98;96615.31;104808;1274;96283;-80
2023/07/29 16:40:17;;;;;;;3.20;2.30;;;;;;;20.78;83.95;96619.54;104775;1262;96776;-80
2023/07/29 16:42:44;;;;;;;3.50;2.70;;;;;;;20.76;83.99;96622.48;104784;1262;96385;-80
2023/07/29 16:45:10;;;;;;;4.30;3.00;;;;;;;20.68;83.92;96620.55;104880;1280;95828;-80
2023/07/29 16:47:36;;;;;;;5.70;2.70;;;;;;;20.62;84.33;96621.19;104893;1262;101614;-80
2023/07/29 16:50:03;;;;;;;3.20;2.90;;;;;;;20.57;84.23;96620.54;104741;1257;97996;-80
2023/07/29 16:52:29;;;;;;;8.90;3.60;;;;;;;20.48;84.46;96620.27;104808;1277;95925;-80
2023/07/29 16:54:55;;;;;;;5.60;3.90;;;;;;;20.46;84.62;96614.05;104703;1262;96463;-80
2023/07/29 16:57:22;;;;;;;8.00;3.70;;;;;;;20.42;84.65;96614.70;104820;1262;99760;-80
2023/07/29 16:59:48;;;;;;;4.90;4.20;;;;;;;20.35;84.65;96608.73;104901;1263;95800;-80
2023/07/29 17:02:14;;;;;;;6.20;4.20;;;;;;;20.32;84.90;96600.54;104822;1259;96171;-80
2023/07/29 17:04:41;;;;;;;14.40;12.20;;;;;;;20.34;85.11;96596.89;105004;1270;95869;-80
2023/07/29 17:07:07;;;;;;;20.40;13.70;;;;;;;20.34;85.15;96591.08;104942;1259;109560;-80
2023/07/29 17:09:33;;;;;;;8.50;6.00;;;;;;;20.33;85.14;96587.48;105052;1258;96100;-80
2023/07/29 17:11:59;;;;;;;7.50;5.50;;;;;;;20.32;85.30;96586.99;105002;1259;95896;-80
2023/07/29 17:14:26;;;;;;;6.30;4.30;;;;;;;20.33;85.15;96587.52;105327;1259;96673;-80
2023/07/29 17:16:53;;;;;;;4.70;4.20;;;;;;;20.28;84.93;96584.04;105276;1259;109074;-80
2023/07/29 17:19:20;;;;;;;3.50;3.20;;;;;;;20.23;85.18;96580.31;105050;1259;95989;-80
2023/07/29 17:21:46;;;;;;;5.60;3.60;;;;;;;20.18;85.07;96578.52;105056;1254;95906;-80
2023/07/29 17:24:12;;;;;;;6.70;4.80;;;;;;;20.06;85.14;96575.03;105069;1259;96782;-81
2023/07/29 17:26:39;;;;;;;8.40;5.10;;;;;;;20.02;85.50;96578.92;105107;1278;95832;-80
2023/07/29 17:29:05;;;;;;;5.90;4.80;;;;;;;20.02;85.40;96582.05;105163;1254;102217;-81
2023/07/29 17:31:31;;;;;;;6.40;5.40;;;;;;;19.96;85.04;96582.38;105137;1253;95864;-80
2023/07/29 17:33:59;;;;;;;8.40;5.00;;;;;;;19.84;85.03;96586.61;105041;1259;96499;-80
2023/07/29 17:36:26;;;;;;;8.30;5.40;;;;;;;19.81;85.20;96585.11;104927;1257;95838;-80
2023/07/29 17:38:52;;;;;;;10.10;6.10;;;;;;;19.82;85.55;96583.62;105049;1257;96771;-80
2023/07/29 17:41:18;;;;;;;7.60;6.30;;;;;;;19.83;85.77;96586.02;105196;1255;100540;-80
2023/07/29 17:43:47;;;;;;;9.10;6.40;;;;;;;19.84;85.67;96584.86;105205;1258;95845;-81
2023/07/29 17:46:16;;;;;;;9.80;6.40;;;;;;;19.83;85.69;96582.48;104714;1254;96009;-81
2023/07/29 17:48:44;;;;;;;6.70;5.20;;;;;;;19.76;85.47;96577.29;105136;1259;101611;-81
2023/07/29 17:51:10;;;;;;;7.60;5.70;;;;;;;19.69;85.70;96570.63;105033;1266;95918;-80
2023/07/29 17:53:36;;;;;;;10.10;7.10;;;;;;;19.67;85.99;96570.21;104959;1259;95768;-81
2023/07/29 17:56:03;;;;;;;13.80;8.90;;;;;;;19.66;86.03;96566.60;105010;1257;96218;-80
2023/07/29 17:58:29;;;;;;;14.00;9.80;;;;;;;19.67;86.10;96567.38;105057;1255;95864;-80
2023/07/29 18:00:59;;;;;;;12.70;9.80;;;;;;;19.63;85.98;96573.27;105038;1259;102169;-80
2023/07/29 18:03:25;;;;;;;12.50;8.80;;;;;;;19.53;85.84;96570.49;104951;1261;100670;-81
2023/07/29 18:05:51;;;;;;;10.70;8.10;;;;;;;19.45;86.05;96571.96;104951;1259;95827;-80
2023/07/29 18:08:18;;;;;;;12.60;8.10;;;;;;;19.39;86.14;96574.60;104999;1258;97151;-80
2023/07/29 18:10:44;;;;;;;11.00;8.20;;;;;;;19.34;86.35;96572.06;105199;1259;96126;-80
2023/07/29 18:13:11;;;;;;;11.40;8.00;;;;;;;19.30;86.36;96568.41;105008;1256;98962;-80
2023/07/29 19:12:17;;;;;;;13.80;7.70;;;;;;;18.62;88.20;96579.94;105317;1269;95935;-78
2023/07/29 19:15:23;;;;;;;14.00;10.00;;;;;;;18.53;88.17;96572.31;105376;1273;98979;-79
2023/07/29 19:18:30;;;;;;;13.00;7.70;;;;;;;18.45;88.18;96571.53;104974;1275;96447;-79
2023/07/29 19:21:36;;;;;;;15.30;10.30;;;;;;;18.40;88.26;96577.89;104757;1269;96666;-79
2023/07/29 19:24:42;;;;;;;18.60;11.50;;;;;;;18.38;88.58;96572.98;104383;1275;99916;-78
2023/07/29 19:50:08;;;;;;;13.50;9.20;;;;;;;18.67;87.64;96587.33;103016;1296;639378;-82
2023/07/29 19:52:37;;;;;;;10.60;8.80;;;;;;;18.70;87.37;96586.51;104600;1266;96099;-82
2023/07/29 19:55:05;;;;;;;12.40;9.70;;;;;;;18.63;87.58;96583.70;104583;1263;95851;-82
2023/07/29 19:57:33;;;;;;;16.20;8.10;;;;;;;18.61;87.79;96582.99;104428;1267;100282;-82
2023/07/29 20:00:01;;;;;;;14.80;8.70;;;;;;;18.55;87.76;96581.80;104457;1266;109684;-82
2023/07/29 20:02:31;;;;;;;16.90;9.60;;;;;;;18.52;87.79;96580.29;104412;1277;101028;-82
2023/07/29 20:04:59;;;;;;;12.90;9.40;;;;;;;18.49;87.79;96572.16;104449;1264;95871;-82
2023/07/29 20:07:26;;;;;;;12.90;8.90;;;;;;;18.41;87.51;96576.42;105155;1260;96754;-82
2023/07/29 20:09:54;;;;;;;11.00;8.30;;;;;;;18.31;87.65;96576.30;104878;1268;107459;-82
2023/07/29 20:12:22;;;;;;;11.70;8.30;;;;;;;18.28;87.74;96575.05;105100;1262;102199;-82
2023/07/29 20:14:49;;;;;;;15.40;8.80;;;;;;;18.25;87.71;96574.67;104777;1262;100619;-82
2023/07/29 20:17:17;;;;;;;13.10;8.90;;;;;;;18.17;87.43;96572.86;104926;1262;96865;-82
2023/07/29 20:19:45;;;;;;;10.20;7.00;;;;;;;18.10;87.42;96572.08;105094;1261;96658;-82
2023/07/29 20:22:12;;;;;;;8.00;6.50;;;;;;;18.01;87.33;96572.54;104788;1263;101582;-82
2023/07/29 20:24:40;;;;;;;17.40;9.90;;;;;;;17.90;87.22;96568.87;104848;1260;111746;-82
2023/07/29 20:27:08;;;;;;;14.60;9.20;;;;;;;17.80;87.60;96572.39;104950;1258;100625;-82
2023/07/29 20:29:36;;;;;;;22.30;12.30;;;;;;;17.77;87.73;96572.77;105077;1262;96688;-82
2023/07/29 20:32:03;;;;;;;18.20;10.30;;;;;;;17.72;87.91;96571.39;105216;1257;96833;-82
2023/07/29 20:34:31;;;;;;;16.30;10.10;;;;;;;17.69;88.14;96570.79;105219;1262;101546;-82
2023/07/29 20:36:59;;;;;;;18.30;11.10;;;;;;;17.67;87.98;96572.97;105097;1260;102357;-82
2023/07/29 20:39:28;;;;;;;18.20;12.00;;;;;;;17.60;87.93;96575.20;105024;1272;108307;-82
2023/07/29 20:41:56;;;;;;;17.30;12.40;;;;;;;17.55;88.05;96577.11;105077;1270;96713;-82
2023/07/29 20:44:28;;;;;;;15.80;11.70;;;;;;;17.53;88.39;96576.19;105441;1260;95787;-82
2023/07/29 20:46:55;;;;;;;16.20;10.80;;;;;;;17.50;88.38;96577.35;105164;1262;100850;-82
2023/07/29 20:49:24;;;;;;;13.60;10.40;;;;;;;17.49;88.44;96578.94;105186;1257;100783;-82
2023/07/29 20:51:51;;;;;;;16.70;9.90;;;;;;;17.49;88.60;96583.20;105335;1262;108250;-82
2023/07/29 20:54:19;;;;;;;18.10;10.10;;;;;;;17.49;88.68;96588.11;105319;1257;96457;-82
2023/07/29 20:56:47;;;;;;;13.90;10.20;;;;;;;17.49;88.40;96591.21;105324;1260;95845;-82
2023/07/29 20:59:15;;;;;;;13.60;10.10;;;;;;;17.44;88.15;96594.92;105494;1256;108460;-82
2023/07/29 21:01:42;;;;;;;17.20;9.40;;;;;;;17.38;88.09;96593.51;105415;1258;110107;-82
2023/07/29 21:04:10;;;;;;;17.20;9.70;;;;;;;17.31;88.08;96595.69;105084;1257;100561;-82
2023/07/29 21:06:38;;;;;;;12.90;8.80;;;;;;;17.25;88.25;96603.83;105164;1266;96140;-80
2023/07/29 21:09:06;;;;;;;13.10;9.40;;;;;;;17.18;88.32;96604.15;105326;1259;95832;-80
2023/07/29 21:11:33;;;;;;;14.30;9.00;;;;;;;17.14;88.44;96603.28;105476;1256;101686;-81
2023/07/29 21:14:01;;;;;;;12.50;8.50;;;;;;;17.15;88.73;96608.89;105335;1257;102239;-80
2023/07/29 21:16:29;;;;;;;10.70;7.90;;;;;;;17.16;88.79;96600.27;105168;1259;100833;-81
2023/07/29 21:18:57;;;;;;;10.70;7.90;;;;;;;17.14;88.44;96597.01;105465;1267;96382;-80
2023/07/29 21:21:25;;;;;;;13.70;8.30;;;;;;;17.13;88.45;96596.48;105575;1253;95865;-82
2023/07/29 21:23:53;;;;;;;14.60;7.90;;;;;;;17.07;88.09;96598.48;105961;1256;101502;-82
2023/07/29 21:26:20;;;;;;;13.90;6.70;;;;;;;16.98;88.14;96598.20;105860;1254;102163;-82
2023/07/29 21:28:48;;;;;;;8.80;5.80;;;;;;;16.95;88.32;96593.34;105824;1254;106591;-82
2023/07/29 21:31:16;;;;;;;12.60;6.00;;;;;;;16.92;88.53;96596.83;105646;1258;96105;-82
2023/07/29 21:33:43;;;;;;;9.80;5.30;;;;;;;16.94;88.54;96598.46;105686;1256;96668;-82
2023/07/29 21:36:11;;;;;;;10.20;5.00;;;;;;;16.96;88.57;96608.49;105333;1267;101653;-82
2023/07/29 21:38:40;;;;;;;7.30;4.70;;;;;;;16.92;88.45;96614.92;105336;1266;102496;-82
2023/07/29 21:41:08;;;;;;;12.80;5.60;;;;;;;16.90;88.51;96624.80;105219;1256;100553;-82
2023/07/29 21:43:36;;;;;;;9.30;5.90;;;;;;;16.90;88.38;96626.54;105121;1254;95836;-82
2023/07/29 21:46:06;;;;;;;10.00;5.90;;;;;;;16.85;88.48;96632.47;105284;1257;97132;-82
2023/07/29 21:48:33;;;;;;;13.40;6.10;;;;;;;16.77;87.94;96632.94;105532;1256;101564;-82
2023/07/29 21:51:01;;;;;;;15.10;7.90;;;;;;;16.66;88.10;96635.38;105287;1252;102283;-82
2023/07/29 21:53:29;;;;;;;12.20;7.40;;;;;;;16.62;88.38;96637.65;105456;1257;100793;-82
2023/07/29 21:56:06;;;;;;;9.90;6.80;;;;;;;16.62;88.61;96635.96;105020;1255;95856;-82
2023/07/29 21:58:43;;;;;;;6.50;4.90;;;;;;;16.60;88.53;96632.39;105185;1255;95883;-82
2023/07/29 22:01:16;;;;;;;12.10;4.70;;;;;;;16.57;88.77;96636.56;105148;1261;100173;-82
2023/07/29 22:03:44;;;;;;;5.80;4.30;;;;;;;16.59;88.98;96635.54;105311;1259;102397;-82
2023/07/29 22:06:12;;;;;;;6.50;4.70;;;;;;;16.57;89.06;96640.21;105211;1270;100745;-82
2023/07/29 22:08:39;;;;;;;8.50;4.90;;;;;;;16.58;89.07;96644.90;105109;1259;95845;-82
2023/07/29 22:11:11;;;;;;;8.80;5.10;;;;;;;16.54;88.97;96640.80;105145;1259;95828;-82
2023/07/29 22:13:39;;;;;;;6.70;4.40;;;;;;;16.49;89.02;96646.29;105190;1256;101550;-82
2023/07/29 22:16:06;;;;;;;10.10;4.60;;;;;;;16.50;89.42;96651.47;108799;1252;102336;-82
2023/07/29 22:18:34;;;;;;;10.00;4.90;;;;;;;16.52;89.29;96652.48;108707;1253;107802;-83
2023/07/29 22:21:02;;;;;;;8.60;4.70;;;;;;;16.49;89.07;96654.63;108745;1253;93627;-83
2023/07/29 22:23:30;;;;;;;7.50;4.80;;;;;;;16.46;89.28;96651.13;108815;1252;94036;-82
2023/07/29 22:26:04;;;;;;;8.50;4.40;;;;;;;16.42;89.31;96658.36;108745;1252;99535;-82
2023/07/29 22:28:34;;;;;;;7.60;4.20;;;;;;;16.44;89.40;96659.34;108782;1252;107162;-82
2023/07/29 22:31:05;;;;;;;7.50;4.20;;;;;;;16.46;89.35;96655.98;108703;1253;99763;-82
2023/07/29 22:33:33;;;;;;;6.80;3.70;;;;;;;16.45;89.33;96657.01;108762;1253;93552;-82
2023/07/29 22:36:04;;;;;;;9.10;4.00;;;;;;;16.43;88.91;96654.00;108781;1253;93494;-83
2023/07/29 22:38:33;;;;;;;9.40;4.10;;;;;;;16.39;89.30;96662.11;108784;1252;109565;-82
2023/07/29 22:41:01;;;;;;;9.00;4.10;;;;;;;16.37;89.03;96659.20;108822;1252;101784;-81
2023/07/29 22:43:30;;;;;;;5.70;4.40;;;;;;;16.29;89.04;96653.63;108802;1252;109550;-82
2023/07/29 22:45:59;;;;;;;7.60;4.50;;;;;;;16.31;89.64;96654.00;108712;1252;93643;-82
2023/07/29 22:48:28;;;;;;;6.00;4.70;;;;;;;16.37;89.72;96658.61;108782;1252;93583;-82
2023/07/29 22:50:57;;;;;;;6.90;4.30;;;;;;;16.39;89.54;96659.92;108791;1252;100614;-83
2023/07/29 22:53:25;;;;;;;7.00;4.30;;;;;;;16.35;89.45;96658.11;108778;1253;109514;-83
2023/07/29 22:55:53;;;;;;;5.50;4.30;;;;;;;16.34;89.52;96660.08;108766;1252;100063;-82
2023/07/29 22:58:21;;;;;;;6.80;4.10;;;;;;;16.37;89.80;96665.26;108759;1252;93666;-81
2023/07/29 23:00:51;;;;;;;9.10;3.70;;;;;;;16.35;89.41;96664.38;108825;1253;93882;-82
2023/07/29 23:03:19;;;;;;;6.20;3.70;;;;;;;16.36;89.66;96667.16;108779;1252;101063;-82
2023/07/29 23:05:47;;;;;;;4.40;3.70;;;;;;;16.38;89.64;96665.65;108810;1252;101638;-82
2023/07/29 23:08:15;;;;;;;10.30;4.30;;;;;;;16.37;89.55;96664.27;108799;1252;100215;-82
2023/07/29 23:10:43;;;;;;;6.70;4.00;;;;;;;16.37;89.64;96668.59;108766;1253;95606;-82
2023/07/29 23:13:10;;;;;;;8.00;4.10;;;;;;;16.35;89.52;96671.62;108799;1252;93504;-82
2023/07/29 23:15:39;;;;;;;4.20;3.60;;;;;;;16.32;89.70;96666.31;108805;1253;101034;-82
2023/07/29 23:18:07;;;;;;;7.00;4.10;;;;;;;16.34;90.02;96666.81;108779;1252;100609;-82
2023/07/29 23:20:36;;;;;;;6.00;4.50;;;;;;;16.37;90.00;96667.65;108702;1252;99992;-82
2023/07/29 23:23:04;;;;;;;7.70;4.00;;;;;;;16.42;89.86;96667.19;108740;1252;93560;-82
2023/07/29 23:25:32;;;;;;;9.70;4.70;;;;;;;16.40;89.60;96657.37;108790;1252;93565;-83
2023/07/29 23:28:00;;;;;;;5.30;4.10;;;;;;;16.34;89.83;96658.42;108800;1252;101005;-82
2023/07/29 23:30:28;;;;;;;8.00;3.30;;;;;;;16.33;89.90;96657.44;108767;1252;101468;-83
2023/07/29 23:32:55;;;;;;;4.70;3.80;;;;;;;16.33;89.86;96662.89;108730;1252;100249;-82
2023/07/29 23:35:23;;;;;;;7.60;4.10;;;;;;;16.35;90.09;96668.90;108738;1252;93608;-82
2023/07/29 23:37:51;;;;;;;10.70;4.30;;;;;;;16.40;90.07;96670.40;108771;1253;93619;-83
2023/07/29 23:40:18;;;;;;;9.00;3.90;;;;;;;16.41;89.82;96670.61;108816;1252;101101;-82
2023/07/29 23:42:46;;;;;;;6.80;3.80;;;;;;;16.37;89.74;96666.46;108779;1252;100422;-82
2023/07/29 23:45:14;;;;;;;6.10;3.90;;;;;;;16.37;90.02;96670.71;108751;1252;99834;-82
2023/07/29 23:47:42;;;;;;;6.70;4.00;;;;;;;16.41;90.31;96670.95;108744;1252;93496;-82
2023/07/29 23:50:10;;;;;;;5.00;4.00;;;;;;;16.46;90.31;96670.13;108767;1253;93455;-82
2023/07/29 23:52:37;;;;;;;7.40;4.10;;;;;;;16.51;90.38;96669.84;108715;1252;100991;-83
2023/07/29 23:55:06;;;;;;;6.00;4.10;;;;;;;16.55;90.45;96674.69;108822;1252;101606;-83
2023/07/29 23:57:33;;;;;;;8.60;4.20;;;;;;;16.58;90.10;96674.54;108784;1252;99883;-82
